sensor_id;sensor_type;location;lat;lon;timestamp;pressure;altitude;pressure_sealevel;temperature;humidity
16595;BME280;8410;52.532;13.336;2023-04-07T00:00:25;101548.69;;;8.27;52.51
16595;BME280;8410;52.532;13.336;2023-04-07T00:02:53;101546.91;;;8.26;52.80
16595;BME280;8410;52.532;13.336;2023-04-07T00:05:21;101540.66;;;8.17;54.49
16595;BME280;8410;52.532;13.336;2023-04-07T00:07:48;101541.41;;;8.39;53.40
16595;BME280;8410;52.532;13.336;2023-04-07T00:10:22;101544.22;;;7.97;54.04
16595;BME280;8410;52.532;13.336;2023-04-07T00:12:51;101552.53;;;7.67;55.58
16595;BME280;8410;52.532;13.336;2023-04-07T00:15:18;101544.59;;;7.61;55.12
16595;BME280;8410;52.532;13.336;2023-04-07T00:17:46;101554.16;;;7.43;54.77
16595;BME280;8410;52.532;13.336;2023-04-07T00:20:13;101555.84;;;7.20;56.51
16595;BME280;8410;52.532;13.336;2023-04-07T00:22:41;101556.97;;;7.05;56.88
16595;BME280;8410;52.532;13.336;2023-04-07T00:25:08;101563.75;;;7.03;56.34
16595;BME280;8410;52.532;13.336;2023-04-07T00:27:36;101549.69;;;6.94;56.71
16595;BME280;8410;52.532;13.336;2023-04-07T00:30:06;101550.19;;;7.28;56.05
16595;BME280;8410;52.532;13.336;2023-04-07T00:32:34;101554.72;;;7.13;56.80
16595;BME280;8410;52.532;13.336;2023-04-07T00:35:02;101549.75;;;6.95;56.49
16595;BME280;8410;52.532;13.336;2023-04-07T00:37:29;101540.59;;;7.68;54.22
16595;BME280;8410;52.532;13.336;2023-04-07T00:39:57;101543.78;;;7.40;55.67
16595;BME280;8410;52.532;13.336;2023-04-07T00:42:24;101542.34;;;7.93;53.93
16595;BME280;8410;52.532;13.336;2023-04-07T00:44:52;101533.28;;;8.27;54.51
16595;BME280;8410;52.532;13.336;2023-04-07T00:47:20;101547.63;;;7.28;54.99
16595;BME280;8410;52.532;13.336;2023-04-07T00:49:48;101542.41;;;7.25;55.30
16595;BME280;8410;52.532;13.336;2023-04-07T00:52:16;101534.25;;;8.05;54.09
16595;BME280;8410;52.532;13.336;2023-04-07T00:54:44;101542.16;;;7.42;55.88
16595;BME280;8410;52.532;13.336;2023-04-07T00:57:12;101533.28;;;8.27;54.66
16595;BME280;8410;52.532;13.336;2023-04-07T00:59:39;101528.72;;;8.42;52.60
16595;BME280;8410;52.532;13.336;2023-04-07T01:02:10;101533.66;;;7.65;53.91
16595;BME280;8410;52.532;13.336;2023-04-07T01:04:46;101527.97;;;7.72;53.47
16595;BME280;8410;52.532;13.336;2023-04-07T01:07:18;101530.00;;;7.83;53.06
16595;BME280;8410;52.532;13.336;2023-04-07T01:09:53;101526.31;;;7.74;53.91
16595;BME280;8410;52.532;13.336;2023-04-07T01:12:33;101517.47;;;8.14;52.68
16595;BME280;8410;52.532;13.336;2023-04-07T01:15:08;101523.03;;;7.55;53.33
16595;BME280;8410;52.532;13.336;2023-04-07T01:17:36;101521.56;;;7.39;53.23
16595;BME280;8410;52.532;13.336;2023-04-07T01:20:11;101513.63;;;7.55;54.64
16595;BME280;8410;52.532;13.336;2023-04-07T01:22:42;101511.00;;;7.54;53.95
16595;BME280;8410;52.532;13.336;2023-04-07T01:25:37;101513.84;;;7.61;53.98
16595;BME280;8410;52.532;13.336;2023-04-07T01:28:25;101503.69;;;8.11;53.76
16595;BME280;8410;52.532;13.336;2023-04-07T01:31:00;101506.91;;;8.05;53.11
16595;BME280;8410;52.532;13.336;2023-04-07T01:33:30;101505.78;;;8.23;52.94
16595;BME280;8410;52.532;13.336;2023-04-07T01:35:59;101502.94;;;8.39;51.84
16595;BME280;8410;52.532;13.336;2023-04-07T01:38:28;101503.25;;;8.48;53.51
16595;BME280;8410;52.532;13.336;2023-04-07T01:40:57;101503.44;;;8.29;54.07
16595;BME280;8410;52.532;13.336;2023-04-07T01:43:26;101502.84;;;8.12;53.98
16595;BME280;8410;52.532;13.336;2023-04-07T01:45:54;101499.97;;;8.03;53.02
16595;BME280;8410;52.532;13.336;2023-04-07T01:48:25;101500.66;;;7.99;54.56
16595;BME280;8410;52.532;13.336;2023-04-07T01:50:53;101505.09;;;8.03;53.34
16595;BME280;8410;52.532;13.336;2023-04-07T01:53:22;101496.84;;;8.11;53.60
16595;BME280;8410;52.532;13.336;2023-04-07T01:55:51;101502.34;;;8.22;53.83
16595;BME280;8410;52.532;13.336;2023-04-07T01:58:19;101502.19;;;7.93;53.13
16595;BME280;8410;52.532;13.336;2023-04-07T02:00:47;101501.53;;;7.99;54.84
16595;BME280;8410;52.532;13.336;2023-04-07T02:03:19;101507.38;;;7.95;53.16
16595;BME280;8410;52.532;13.336;2023-04-07T02:05:53;101499.81;;;7.98;53.26
16595;BME280;8410;52.532;13.336;2023-04-07T02:08:23;101489.75;;;8.04;54.15
16595;BME280;8410;52.532;13.336;2023-04-07T02:10:54;101494.78;;;7.77;55.13
16595;BME280;8410;52.532;13.336;2023-04-07T02:13:23;101497.47;;;7.34;54.52
16595;BME280;8410;52.532;13.336;2023-04-07T02:15:53;101491.03;;;7.67;54.23
16595;BME280;8410;52.532;13.336;2023-04-07T02:18:22;101488.88;;;7.56;55.04
16595;BME280;8410;52.532;13.336;2023-04-07T02:20:54;101489.50;;;7.48;54.41
16595;BME280;8410;52.532;13.336;2023-04-07T02:23:22;101492.06;;;7.03;54.69
16595;BME280;8410;52.532;13.336;2023-04-07T02:25:49;101496.53;;;7.09;54.90
16595;BME280;8410;52.532;13.336;2023-04-07T02:28:17;101498.56;;;6.74;55.98
16595;BME280;8410;52.532;13.336;2023-04-07T02:30:44;101483.09;;;7.61;55.64
16595;BME280;8410;52.532;13.336;2023-04-07T02:33:12;101484.31;;;7.95;56.53
16595;BME280;8410;52.532;13.336;2023-04-07T02:35:39;101482.28;;;8.10;57.13
16595;BME280;8410;52.532;13.336;2023-04-07T02:38:08;101479.75;;;7.62;59.17
16595;BME280;8410;52.532;13.336;2023-04-07T02:40:36;101483.53;;;7.49;58.66
16595;BME280;8410;52.532;13.336;2023-04-07T02:43:03;101484.09;;;7.41;59.69
16595;BME280;8410;52.532;13.336;2023-04-07T02:45:31;101483.69;;;7.30;60.83
16595;BME280;8410;52.532;13.336;2023-04-07T02:47:58;101479.44;;;7.31;60.45
16595;BME280;8410;52.532;13.336;2023-04-07T02:50:26;101478.41;;;7.27;60.98
16595;BME280;8410;52.532;13.336;2023-04-07T02:52:54;101475.00;;;7.26;60.77
16595;BME280;8410;52.532;13.336;2023-04-07T02:55:23;101480.47;;;7.36;60.96
16595;BME280;8410;52.532;13.336;2023-04-07T02:57:50;101483.59;;;7.28;60.09
16595;BME280;8410;52.532;13.336;2023-04-07T03:00:18;101483.72;;;7.32;60.84
16595;BME280;8410;52.532;13.336;2023-04-07T03:02:46;101483.47;;;7.48;60.16
16595;BME280;8410;52.532;13.336;2023-04-07T03:05:13;101486.75;;;7.21;60.30
16595;BME280;8410;52.532;13.336;2023-04-07T03:07:41;101476.75;;;7.27;61.24
16595;BME280;8410;52.532;13.336;2023-04-07T03:10:09;101476.72;;;7.50;59.72
16595;BME280;8410;52.532;13.336;2023-04-07T03:12:38;101474.31;;;7.31;60.11
16595;BME280;8410;52.532;13.336;2023-04-07T03:15:06;101478.25;;;7.22;61.31
16595;BME280;8410;52.532;13.336;2023-04-07T03:17:34;101475.69;;;7.45;60.25
16595;BME280;8410;52.532;13.336;2023-04-07T03:20:01;101484.09;;;7.41;60.66
16595;BME280;8410;52.532;13.336;2023-04-07T03:22:29;101477.78;;;7.10;61.30
16595;BME280;8410;52.532;13.336;2023-04-07T03:24:57;101473.03;;;7.19;61.07
16595;BME280;8410;52.532;13.336;2023-04-07T03:27:24;101468.25;;;7.28;61.17
16595;BME280;8410;52.532;13.336;2023-04-07T03:29:53;101469.75;;;7.23;61.19
16595;BME280;8410;52.532;13.336;2023-04-07T03:32:21;101474.91;;;6.80;63.13
16595;BME280;8410;52.532;13.336;2023-04-07T03:34:48;101474.16;;;7.05;62.11
16595;BME280;8410;52.532;13.336;2023-04-07T03:37:16;101464.06;;;7.31;62.19
16595;BME280;8410;52.532;13.336;2023-04-07T03:39:43;101456.78;;;7.19;62.15
16595;BME280;8410;52.532;13.336;2023-04-07T03:42:11;101470.19;;;7.12;61.91
16595;BME280;8410;52.532;13.336;2023-04-07T03:44:39;101463.94;;;7.05;62.13
16595;BME280;8410;52.532;13.336;2023-04-07T03:47:08;101460.22;;;6.97;62.33
16595;BME280;8410;52.532;13.336;2023-04-07T03:49:35;101465.56;;;7.03;61.47
16595;BME280;8410;52.532;13.336;2023-04-07T03:52:04;101453.81;;;7.08;60.99
16595;BME280;8410;52.532;13.336;2023-04-07T03:54:31;101465.13;;;6.92;61.43
16595;BME280;8410;52.532;13.336;2023-04-07T03:57:00;101466.63;;;6.65;62.28
16595;BME280;8410;52.532;13.336;2023-04-07T03:59:28;101466.59;;;6.63;62.52
16595;BME280;8410;52.532;13.336;2023-04-07T04:01:55;101462.88;;;6.77;61.98
16595;BME280;8410;52.532;13.336;2023-04-07T04:04:24;101461.00;;;6.73;62.54
16595;BME280;8410;52.532;13.336;2023-04-07T04:06:52;101468.00;;;6.56;62.94
16595;BME280;8410;52.532;13.336;2023-04-07T04:09:19;101466.72;;;6.89;62.22
16595;BME280;8410;52.532;13.336;2023-04-07T04:11:47;101474.34;;;6.24;62.97
16595;BME280;8410;52.532;13.336;2023-04-07T04:14:15;101468.72;;;6.12;63.54
16595;BME280;8410;52.532;13.336;2023-04-07T04:16:42;101473.75;;;6.51;62.68
16595;BME280;8410;52.532;13.336;2023-04-07T04:19:10;101477.06;;;6.08;63.33
16595;BME280;8410;52.532;13.336;2023-04-07T04:21:38;101475.75;;;5.96;63.24
16595;BME280;8410;52.532;13.336;2023-04-07T04:24:06;101478.97;;;6.54;61.50
16595;BME280;8410;52.532;13.336;2023-04-07T04:26:33;101474.09;;;6.18;62.40
16595;BME280;8410;52.532;13.336;2023-04-07T04:29:01;101473.56;;;6.06;63.14
16595;BME280;8410;52.532;13.336;2023-04-07T04:31:29;101476.66;;;5.99;63.07
16595;BME280;8410;52.532;13.336;2023-04-07T04:33:56;101477.75;;;5.84;63.92
16595;BME280;8410;52.532;13.336;2023-04-07T04:36:24;101469.44;;;6.29;62.04
16595;BME280;8410;52.532;13.336;2023-04-07T04:38:53;101475.34;;;6.28;62.33
16595;BME280;8410;52.532;13.336;2023-04-07T04:41:20;101475.13;;;6.63;60.61
16595;BME280;8410;52.532;13.336;2023-04-07T04:43:48;101475.88;;;6.61;60.96
16595;BME280;8410;52.532;13.336;2023-04-07T04:46:15;101471.50;;;6.79;59.81
16595;BME280;8410;52.532;13.336;2023-04-07T04:48:43;101476.66;;;6.18;60.85
16595;BME280;8410;52.532;13.336;2023-04-07T04:51:10;101481.69;;;6.16;61.82
16595;BME280;8410;52.532;13.336;2023-04-07T04:53:38;101475.00;;;6.39;61.02
16595;BME280;8410;52.532;13.336;2023-04-07T04:56:07;101487.97;;;6.23;61.51
16595;BME280;8410;52.532;13.336;2023-04-07T04:58:34;101482.53;;;6.57;60.54
16595;BME280;8410;52.532;13.336;2023-04-07T05:01:02;101491.25;;;6.62;59.99
16595;BME280;8410;52.532;13.336;2023-04-07T05:03:29;101483.38;;;5.58;62.52
16595;BME280;8410;52.532;13.336;2023-04-07T05:05:57;101492.66;;;5.56;63.13
16595;BME280;8410;52.532;13.336;2023-04-07T05:08:25;101488.22;;;5.90;63.35
16595;BME280;8410;52.532;13.336;2023-04-07T05:10:52;101485.41;;;5.45;63.56
16595;BME280;8410;52.532;13.336;2023-04-07T05:13:21;101487.81;;;6.20;61.96
16595;BME280;8410;52.532;13.336;2023-04-07T05:15:49;101501.56;;;6.85;60.82
16595;BME280;8410;52.532;13.336;2023-04-07T05:18:16;101493.59;;;6.77;60.04
16595;BME280;8410;52.532;13.336;2023-04-07T05:20:44;101488.44;;;6.35;60.74
16595;BME280;8410;52.532;13.336;2023-04-07T05:23:11;101487.22;;;6.47;61.98
16595;BME280;8410;52.532;13.336;2023-04-07T05:25:39;101480.91;;;7.48;58.34
16595;BME280;8410;52.532;13.336;2023-04-07T05:28:07;101493.53;;;6.34;61.86
16595;BME280;8410;52.532;13.336;2023-04-07T05:30:35;101490.78;;;7.15;59.66
16595;BME280;8410;52.532;13.336;2023-04-07T05:33:03;101498.84;;;5.61;63.40
16595;BME280;8410;52.532;13.336;2023-04-07T05:35:31;101493.69;;;6.59;61.98
16595;BME280;8410;52.532;13.336;2023-04-07T05:37:58;101472.25;;;7.68;59.45
16595;BME280;8410;52.532;13.336;2023-04-07T05:40:26;101480.94;;;7.72;57.76
16595;BME280;8410;52.532;13.336;2023-04-07T05:42:55;101472.03;;;8.36;57.43
16595;BME280;8410;52.532;13.336;2023-04-07T05:45:22;101472.03;;;8.36;57.55
16595;BME280;8410;52.532;13.336;2023-04-07T05:47:52;101464.50;;;8.93;56.06
16595;BME280;8410;52.532;13.336;2023-04-07T05:50:19;101464.91;;;9.36;54.54
16595;BME280;8410;52.532;13.336;2023-04-07T05:52:46;101474.34;;;7.79;56.93
16595;BME280;8410;52.532;13.336;2023-04-07T05:55:14;101477.84;;;7.34;59.00
16595;BME280;8410;52.532;13.336;2023-04-07T05:57:41;101472.03;;;7.38;58.91
16595;BME280;8410;52.532;13.336;2023-04-07T06:00:10;101474.88;;;7.46;58.79
16595;BME280;8410;52.532;13.336;2023-04-07T06:02:37;101483.72;;;7.32;60.00
16595;BME280;8410;52.532;13.336;2023-04-07T06:05:08;101495.19;;;6.12;62.45
16595;BME280;8410;52.532;13.336;2023-04-07T06:07:35;101495.63;;;5.65;64.04
16595;BME280;8410;52.532;13.336;2023-04-07T06:10:04;101503.63;;;6.73;60.99
16595;BME280;8410;52.532;13.336;2023-04-07T06:12:31;101505.34;;;5.35;64.71
16595;BME280;8410;52.532;13.336;2023-04-07T06:14:59;101515.19;;;4.91;66.94
16595;BME280;8410;52.532;13.336;2023-04-07T06:17:26;101510.75;;;5.05;66.98
16595;BME280;8410;52.532;13.336;2023-04-07T06:19:54;101519.47;;;4.56;67.94
16595;BME280;8410;52.532;13.336;2023-04-07T06:22:23;101515.63;;;4.82;68.15
16595;BME280;8410;52.532;13.336;2023-04-07T06:24:50;101504.84;;;5.24;67.89
16595;BME280;8410;52.532;13.336;2023-04-07T06:27:18;101501.50;;;6.01;65.63
16595;BME280;8410;52.532;13.336;2023-04-07T06:29:45;101514.84;;;5.19;66.63
16595;BME280;8410;52.532;13.336;2023-04-07T06:32:13;101509.91;;;5.61;66.24
16595;BME280;8410;52.532;13.336;2023-04-07T06:34:40;101514.88;;;5.39;66.59
16595;BME280;8410;52.532;13.336;2023-04-07T06:37:08;101516.56;;;5.95;65.92
16595;BME280;8410;52.532;13.336;2023-04-07T06:39:37;101508.56;;;6.07;65.05
16595;BME280;8410;52.532;13.336;2023-04-07T06:42:04;101512.34;;;6.15;64.86
16595;BME280;8410;52.532;13.336;2023-04-07T06:44:32;101509.91;;;5.99;66.07
16595;BME280;8410;52.532;13.336;2023-04-07T06:46:59;101505.97;;;5.87;66.19
16595;BME280;8410;52.532;13.336;2023-04-07T06:49:27;101511.00;;;5.29;68.05
16595;BME280;8410;52.532;13.336;2023-04-07T06:51:54;101512.91;;;5.51;67.77
16595;BME280;8410;52.532;13.336;2023-04-07T06:54:22;101509.66;;;5.55;68.21
16595;BME280;8410;52.532;13.336;2023-04-07T06:56:50;101516.56;;;5.38;68.70
16595;BME280;8410;52.532;13.336;2023-04-07T06:59:19;101506.09;;;5.51;67.84
16595;BME280;8410;52.532;13.336;2023-04-07T07:01:47;101508.00;;;6.14;67.06
16595;BME280;8410;52.532;13.336;2023-04-07T07:04:15;101512.31;;;5.95;67.34
16595;BME280;8410;52.532;13.336;2023-04-07T07:06:43;101509.81;;;6.57;65.48
16595;BME280;8410;52.532;13.336;2023-04-07T07:09:10;101513.91;;;5.55;68.00
16595;BME280;8410;52.532;13.336;2023-04-07T07:11:37;101513.94;;;6.13;67.31
16595;BME280;8410;52.532;13.336;2023-04-07T07:14:07;101513.53;;;6.04;67.65
16595;BME280;8410;52.532;13.336;2023-04-07T07:16:35;101516.50;;;6.13;67.54
16595;BME280;8410;52.532;13.336;2023-04-07T07:19:02;101503.06;;;8.42;71.46
16595;BME280;8410;52.532;13.336;2023-04-07T07:21:30;101502.75;;;7.85;74.39
16595;BME280;8410;52.532;13.336;2023-04-07T07:23:58;101509.22;;;8.23;67.74
16595;BME280;8410;52.532;13.336;2023-04-07T07:26:25;101513.41;;;7.04;65.02
16595;BME280;8410;52.532;13.336;2023-04-07T07:28:52;101514.59;;;6.28;67.10
16595;BME280;8410;52.532;13.336;2023-04-07T07:31:21;101519.13;;;7.19;66.46
16595;BME280;8410;52.532;13.336;2023-04-07T07:33:49;101526.28;;;6.63;64.60
16595;BME280;8410;52.532;13.336;2023-04-07T07:36:17;101527.63;;;6.34;62.21
16595;BME280;8410;52.532;13.336;2023-04-07T07:38:44;101525.19;;;5.97;62.89
16595;BME280;8410;52.532;13.336;2023-04-07T07:41:12;101528.44;;;6.96;61.38
16595;BME280;8410;52.532;13.336;2023-04-07T07:43:39;101524.16;;;7.40;58.69
16595;BME280;8410;52.532;13.336;2023-04-07T07:46:07;101520.19;;;8.43;56.84
16595;BME280;8410;52.532;13.336;2023-04-07T07:48:35;101528.19;;;7.34;59.37
16595;BME280;8410;52.532;13.336;2023-04-07T07:51:03;101520.22;;;7.95;57.82
16595;BME280;8410;52.532;13.336;2023-04-07T07:53:31;101527.59;;;7.63;56.56
16595;BME280;8410;52.532;13.336;2023-04-07T07:55:58;101539.63;;;6.77;57.06
16595;BME280;8410;52.532;13.336;2023-04-07T07:58:27;101545.72;;;6.60;57.06
16595;BME280;8410;52.532;13.336;2023-04-07T08:00:54;101535.72;;;7.08;55.27
16595;BME280;8410;52.532;13.336;2023-04-07T08:03:21;101535.88;;;7.11;54.45
16595;BME280;8410;52.532;13.336;2023-04-07T08:05:51;101531.84;;;7.18;55.46
16595;BME280;8410;52.532;13.336;2023-04-07T08:08:18;101527.59;;;7.63;53.87
16595;BME280;8410;52.532;13.336;2023-04-07T08:10:46;101519.97;;;7.65;57.51
16595;BME280;8410;52.532;13.336;2023-04-07T08:13:14;101520.63;;;7.59;58.52
16595;BME280;8410;52.532;13.336;2023-04-07T08:15:41;101527.22;;;7.30;58.59
16595;BME280;8410;52.532;13.336;2023-04-07T08:18:09;101530.00;;;7.83;55.49
16595;BME280;8410;52.532;13.336;2023-04-07T08:20:36;101527.50;;;8.32;53.77
16595;BME280;8410;52.532;13.336;2023-04-07T08:23:05;101531.22;;;7.92;54.06
16595;BME280;8410;52.532;13.336;2023-04-07T08:25:33;101538.34;;;7.31;53.06
16595;BME280;8410;52.532;13.336;2023-04-07T08:28:00;101550.19;;;7.06;53.55
16595;BME280;8410;52.532;13.336;2023-04-07T08:30:28;101542.31;;;7.01;52.25
16595;BME280;8410;52.532;13.336;2023-04-07T08:32:55;101535.28;;;7.86;51.51
16595;BME280;8410;52.532;13.336;2023-04-07T08:35:23;101531.13;;;7.89;50.59
16595;BME280;8410;52.532;13.336;2023-04-07T08:37:50;101530.56;;;8.72;50.37
16595;BME280;8410;52.532;13.336;2023-04-07T08:40:19;101526.41;;;8.26;49.01
16595;BME280;8410;52.532;13.336;2023-04-07T08:42:47;101536.44;;;7.71;49.79
16595;BME280;8410;52.532;13.336;2023-04-07T08:45:16;101539.78;;;7.46;49.83
16595;BME280;8410;52.532;13.336;2023-04-07T08:47:45;101530.69;;;7.55;51.24
16595;BME280;8410;52.532;13.336;2023-04-07T08:50:15;101532.63;;;7.60;50.95
16595;BME280;8410;52.532;13.336;2023-04-07T08:52:44;101535.06;;;7.35;52.62
16595;BME280;8410;52.532;13.336;2023-04-07T08:55:12;101530.56;;;7.98;51.21
16595;BME280;8410;52.532;13.336;2023-04-07T08:57:42;101536.38;;;8.93;50.91
16595;BME280;8410;52.532;13.336;2023-04-07T09:00:10;101537.56;;;8.50;51.49
16595;BME280;8410;52.532;13.336;2023-04-07T09:02:39;101541.59;;;8.20;51.45
16595;BME280;8410;52.532;13.336;2023-04-07T09:05:08;101551.44;;;7.38;53.91
16595;BME280;8410;52.532;13.336;2023-04-07T09:07:37;101562.56;;;7.39;54.43
16595;BME280;8410;52.532;13.336;2023-04-07T09:10:06;101560.22;;;7.45;53.46
16595;BME280;8410;52.532;13.336;2023-04-07T09:12:35;101543.66;;;7.82;53.67
16595;BME280;8410;52.532;13.336;2023-04-07T09:15:05;101569.19;;;7.34;48.93
16595;BME280;8410;52.532;13.336;2023-04-07T09:17:32;101572.59;;;6.70;50.38
16595;BME280;8410;52.532;13.336;2023-04-07T09:20:00;101558.81;;;7.31;50.28
16595;BME280;8410;52.532;13.336;2023-04-07T09:22:35;101547.69;;;8.47;49.81
16595;BME280;8410;52.532;13.336;2023-04-07T09:25:14;101558.34;;;7.18;53.62
16595;BME280;8410;52.532;13.336;2023-04-07T09:27:58;101547.91;;;7.81;53.41
16595;BME280;8410;52.532;13.336;2023-04-07T09:30:27;101550.50;;;8.31;52.77
16595;BME280;8410;52.532;13.336;2023-04-07T09:32:56;101561.09;;;7.45;52.51
16595;BME280;8410;52.532;13.336;2023-04-07T09:35:24;101564.03;;;7.11;53.38
16595;BME280;8410;52.532;13.336;2023-04-07T09:38:01;101555.66;;;7.15;53.80
16595;BME280;8410;52.532;13.336;2023-04-07T09:40:29;101572.47;;;6.88;54.09
16595;BME280;8410;52.532;13.336;2023-04-07T09:42:57;101562.88;;;7.48;53.51
16595;BME280;8410;52.532;13.336;2023-04-07T09:45:28;101570.91;;;7.12;53.76
16595;BME280;8410;52.532;13.336;2023-04-07T09:48:04;101566.06;;;7.41;52.52
16595;BME280;8410;52.532;13.336;2023-04-07T09:50:33;101568.94;;;7.27;53.01
16595;BME280;8410;52.532;13.336;2023-04-07T09:53:01;101573.53;;;6.93;53.22
16595;BME280;8410;52.532;13.336;2023-04-07T09:55:30;101566.16;;;7.66;52.50
16595;BME280;8410;52.532;13.336;2023-04-07T09:57:59;101561.72;;;7.85;52.11
16595;BME280;8410;52.532;13.336;2023-04-07T10:00:28;101572.34;;;6.84;52.74
16595;BME280;8410;52.532;13.336;2023-04-07T10:02:56;101558.94;;;7.79;51.66
16595;BME280;8410;52.532;13.336;2023-04-07T10:05:24;101569.09;;;8.00;51.49
16595;BME280;8410;52.532;13.336;2023-04-07T10:07:52;101571.13;;;7.18;52.93
16595;BME280;8410;52.532;13.336;2023-04-07T10:10:20;101579.31;;;7.31;52.82
16595;BME280;8410;52.532;13.336;2023-04-07T10:12:48;101579.56;;;6.95;53.01
16595;BME280;8410;52.532;13.336;2023-04-07T10:15:16;101571.72;;;6.69;53.48
16595;BME280;8410;52.532;13.336;2023-04-07T10:17:46;101569.09;;;6.89;54.18
16595;BME280;8410;52.532;13.336;2023-04-07T10:20:16;101570.19;;;7.60;52.32
16595;BME280;8410;52.532;13.336;2023-04-07T10:22:45;101574.53;;;7.17;53.09
16595;BME280;8410;52.532;13.336;2023-04-07T10:25:17;101568.53;;;7.39;51.31
16595;BME280;8410;52.532;13.336;2023-04-07T10:27:48;101567.59;;;6.94;53.65
16595;BME280;8410;52.532;13.336;2023-04-07T10:30:21;101572.50;;;7.54;51.84
16595;BME280;8410;52.532;13.336;2023-04-07T10:32:52;101570.34;;;7.42;52.97
16595;BME280;8410;52.532;13.336;2023-04-07T10:35:21;101573.97;;;7.24;52.43
16595;BME280;8410;52.532;13.336;2023-04-07T10:38:13;101580.84;;;7.04;54.50
16595;BME280;8410;52.532;13.336;2023-04-07T10:40:42;101573.72;;;6.97;54.67
16595;BME280;8410;52.532;13.336;2023-04-07T10:43:10;101576.22;;;6.96;56.03
16595;BME280;8410;52.532;13.336;2023-04-07T10:45:56;101574.81;;;6.62;57.50
16595;BME280;8410;52.532;13.336;2023-04-07T10:48:27;101570.72;;;6.87;57.89
16595;BME280;8410;52.532;13.336;2023-04-07T10:51:23;101550.34;;;8.76;52.82
16595;BME280;8410;52.532;13.336;2023-04-07T10:54:18;101561.69;;;7.38;55.87
16595;BME280;8410;52.532;13.336;2023-04-07T10:57:10;101580.31;;;6.92;59.03
16595;BME280;8410;52.532;13.336;2023-04-07T11:00:14;101578.28;;;7.04;60.36
16595;BME280;8410;52.532;13.336;2023-04-07T11:02:43;101561.69;;;7.38;61.37
16595;BME280;8410;52.532;13.336;2023-04-07T11:05:21;101570.81;;;7.11;62.76
16595;BME280;8410;52.532;13.336;2023-04-07T11:07:51;101571.22;;;6.78;66.86
16595;BME280;8410;52.532;13.336;2023-04-07T11:10:20;101571.22;;;7.42;67.39
16595;BME280;8410;52.532;13.336;2023-04-07T11:13:02;101573.84;;;6.79;69.80
16595;BME280;8410;52.532;13.336;2023-04-07T11:15:30;101570.66;;;7.06;68.86
16595;BME280;8410;52.532;13.336;2023-04-07T11:18:06;101579.63;;;6.75;70.44
16595;BME280;8410;52.532;13.336;2023-04-07T11:20:43;101569.59;;;7.01;72.34
16595;BME280;8410;52.532;13.336;2023-04-07T11:23:11;101574.75;;;7.02;73.67
16595;BME280;8410;52.532;13.336;2023-04-07T11:25:41;101564.19;;;7.16;74.46
16595;BME280;8410;52.532;13.336;2023-04-07T11:28:10;101566.59;;;6.69;74.23
16595;BME280;8410;52.532;13.336;2023-04-07T11:30:44;101553.31;;;7.89;72.18
16595;BME280;8410;52.532;13.336;2023-04-07T11:33:16;101564.59;;;7.04;76.31
16595;BME280;8410;52.532;13.336;2023-04-07T11:35:49;101559.09;;;6.95;77.50
16595;BME280;8410;52.532;13.336;2023-04-07T11:38:18;101568.22;;;6.67;80.52
16595;BME280;8410;52.532;13.336;2023-04-07T11:40:46;101552.97;;;7.12;78.63
16595;BME280;8410;52.532;13.336;2023-04-07T11:43:15;101559.22;;;6.56;81.79
16595;BME280;8410;52.532;13.336;2023-04-07T11:45:43;101552.84;;;7.09;83.14
16595;BME280;8410;52.532;13.336;2023-04-07T11:48:29;101555.44;;;6.27;84.22
16595;BME280;8410;52.532;13.336;2023-04-07T11:50:59;101555.75;;;6.75;84.78
16595;BME280;8410;52.532;13.336;2023-04-07T11:53:28;101559.72;;;6.47;85.54
16595;BME280;8410;52.532;13.336;2023-04-07T11:56:00;101554.19;;;6.38;87.00
16595;BME280;8410;52.532;13.336;2023-04-07T11:58:28;101554.44;;;6.84;85.31
16595;BME280;8410;52.532;13.336;2023-04-07T12:00:55;101561.22;;;7.05;86.69
16595;BME280;8410;52.532;13.336;2023-04-07T12:03:23;101561.09;;;6.60;86.64
16595;BME280;8410;52.532;13.336;2023-04-07T12:05:51;101555.00;;;6.77;86.92
16595;BME280;8410;52.532;13.336;2023-04-07T12:08:21;101555.22;;;6.42;86.76
16595;BME280;8410;52.532;13.336;2023-04-07T12:11:02;101557.13;;;6.07;88.41
16595;BME280;8410;52.532;13.336;2023-04-07T12:13:30;101562.22;;;6.67;87.85
16595;BME280;8410;52.532;13.336;2023-04-07T12:15:58;101565.97;;;6.75;86.75
16595;BME280;8410;52.532;13.336;2023-04-07T12:18:26;101559.56;;;6.44;88.76
16595;BME280;8410;52.532;13.336;2023-04-07T12:20:53;101554.22;;;6.59;89.05
16595;BME280;8410;52.532;13.336;2023-04-07T12:23:23;101550.88;;;6.81;88.72
16595;BME280;8410;52.532;13.336;2023-04-07T12:25:50;101554.25;;;7.23;88.46
16595;BME280;8410;52.532;13.336;2023-04-07T12:28:18;101558.22;;;7.15;88.31
16595;BME280;8410;52.532;13.336;2023-04-07T12:30:46;101554.38;;;7.26;88.13
16595;BME280;8410;52.532;13.336;2023-04-07T12:33:14;101558.06;;;6.90;89.45
16595;BME280;8410;52.532;13.336;2023-04-07T12:35:41;101553.47;;;6.40;89.35
16595;BME280;8410;52.532;13.336;2023-04-07T12:38:09;101553.47;;;6.40;91.08
16595;BME280;8410;52.532;13.336;2023-04-07T12:40:38;101560.78;;;6.73;89.65
16595;BME280;8410;52.532;13.336;2023-04-07T12:43:05;101564.09;;;6.92;89.41
16595;BME280;8410;52.532;13.336;2023-04-07T12:45:33;101550.41;;;6.49;90.39
16595;BME280;8410;52.532;13.336;2023-04-07T12:48:00;101553.72;;;6.68;89.60
16595;BME280;8410;52.532;13.336;2023-04-07T12:50:28;101558.59;;;6.61;90.75
16595;BME280;8410;52.532;13.336;2023-04-07T12:52:56;101561.94;;;6.20;91.40
16595;BME280;8410;52.532;13.336;2023-04-07T12:55:25;101555.72;;;6.54;92.74
16595;BME280;8410;52.532;13.336;2023-04-07T12:57:53;101552.75;;;7.06;89.55
16595;BME280;8410;52.532;13.336;2023-04-07T13:00:21;101555.09;;;7.22;88.58
16595;BME280;8410;52.532;13.336;2023-04-07T13:02:49;101544.31;;;7.31;89.39
16595;BME280;8410;52.532;13.336;2023-04-07T13:05:17;101542.56;;;7.53;89.91
16595;BME280;8410;52.532;13.336;2023-04-07T13:07:44;101548.47;;;7.27;87.93
16595;BME280;8410;52.532;13.336;2023-04-07T13:10:14;101543.56;;;6.69;87.74